Time;durP1;ratioP1;P1;durP2;ratioP2;P2;SDS_P1;SDS_P2;PMS_P1;PMS_P2;Temp;Humidity;BMP_temperature;BMP_pressure;BME280_temperature;BME280_humidity;BME280_pressure;Samples;Min_cycle;Max_cycle;Signal;HPM_P1;HPM_P2
2021/05/03 04:26:52;;;;;;;10.98;9.07;;;;;;;3.01;89.45;99399.53;4897629;29;20032;-70
2021/05/03 04:29:17;;;;;;;18.10;9.45;;;;;;;2.94;90.25;99402.75;4897696;29;20024;-77
2021/05/03 04:31:43;;;;;;;10.25;8.82;;;;;;;2.88;90.98;99403.50;4897018;29;20103;-77
2021/05/03 04:34:08;;;;;;;16.15;8.68;;;;;;;3.00;90.71;99397.78;4897208;29;20115;-77
2021/05/03 04:36:34;;;;;;;16.73;9.68;;;;;;;3.27;90.31;99397.50;4897144;29;20127;-77
2021/05/03 04:38:59;;;;;;;15.77;9.57;;;;;;;3.32;89.24;99407.00;4897351;29;20029;-77
2021/05/03 04:41:24;;;;;;;16.25;10.68;;;;;;;3.40;88.23;99406.31;4897022;29;20133;-77
2021/05/03 04:43:49;;;;;;;12.25;9.32;;;;;;;3.51;88.16;99399.72;4897225;29;20028;-77
2021/05/03 04:46:18;;;;;;;13.18;9.73;;;;;;;3.43;88.22;99403.81;4897095;29;20032;-77
2021/05/03 04:48:44;;;;;;;13.40;8.93;;;;;;;3.32;88.81;99407.00;4897183;29;20028;-71
2021/05/03 04:51:09;;;;;;;13.23;9.65;;;;;;;3.43;88.58;99403.81;4896889;29;20401;-71
2021/05/03 04:53:34;;;;;;;11.07;8.65;;;;;;;3.51;88.40;99409.97;4897285;29;20028;-77
2021/05/03 04:56:01;;;;;;;13.98;9.40;;;;;;;3.46;87.83;99416.69;4897033;29;20067;-77
2021/05/03 04:58:27;;;;;;;12.43;9.07;;;;;;;3.24;88.58;99423.94;4896958;29;20033;-77
2021/05/03 05:00:52;;;;;;;11.60;9.43;;;;;;;3.31;88.98;99430.91;4896862;29;20028;-77
2021/05/03 05:03:17;;;;;;;16.65;9.63;;;;;;;3.28;88.93;99430.81;4896865;29;20108;-77
2021/05/03 05:05:45;;;;;;;10.98;9.48;;;;;;;3.15;89.36;99428.00;4896732;29;20471;-77
2021/05/03 05:08:10;;;;;;;13.90;9.52;;;;;;;3.34;89.30;99428.41;4896875;29;20482;-77
2021/05/03 05:10:36;;;;;;;11.88;10.00;;;;;;;3.46;88.69;99419.25;4896546;29;20036;-77
2021/05/03 05:13:01;;;;;;;14.30;10.02;;;;;;;3.50;88.50;99424.47;4896907;29;20033;-77
2021/05/03 05:15:27;;;;;;;11.88;9.57;;;;;;;3.56;87.49;99424.59;4896591;29;20028;-76
2021/05/03 05:17:52;;;;;;;16.63;9.88;;;;;;;3.90;86.70;99421.81;4896882;29;20047;-77
2021/05/03 05:20:19;;;;;;;11.95;9.80;;;;;;;3.86;86.44;99426.03;4896648;29;20080;-77
2021/05/03 05:22:45;;;;;;;14.35;9.95;;;;;;;3.97;86.11;99428.81;4896793;29;20102;-77
2021/05/03 05:25:11;;;;;;;10.80;8.95;;;;;;;4.07;86.21;99428.16;4896824;29;20534;-77
2021/05/03 05:27:36;;;;;;;13.00;9.38;;;;;;;4.28;85.05;99423.41;4896600;29;20039;-77
2021/05/03 05:30:04;;;;;;;13.35;9.98;;;;;;;4.16;85.11;99430.88;4896622;29;20029;-77
2021/05/03 05:32:29;;;;;;;12.07;9.63;;;;;;;4.34;85.18;99430.31;4896569;29;20017;-77
2021/05/03 05:34:55;;;;;;;23.42;11.23;;;;;;;4.55;84.45;99435.84;4896634;29;20075;-77
2021/05/03 05:37:20;;;;;;;15.70;10.43;;;;;;;4.80;83.54;99437.09;4898235;29;20490;-77
2021/05/03 05:39:45;;;;;;;13.60;9.40;;;;;;;5.14;82.05;99437.59;4900253;29;20033;-77
2021/05/03 05:42:11;;;;;;;11.00;9.38;;;;;;;5.19;81.60;99433.38;4900145;29;20028;-78
2021/05/03 05:44:36;;;;;;;10.70;9.00;;;;;;;5.43;80.56;99439.72;4900311;29;20029;-78
2021/05/03 05:47:02;;;;;;;13.93;10.20;;;;;;;5.56;79.95;99432.19;4900302;29;20032;-78
2021/05/03 05:49:27;;;;;;;11.23;9.52;;;;;;;5.42;80.51;99438.84;4899033;29;20028;-78
2021/05/03 05:51:53;;;;;;;13.00;9.35;;;;;;;5.71;79.24;99436.66;4899841;29;20028;-78
2021/05/03 05:54:18;;;;;;;14.18;9.13;;;;;;;6.10;79.16;99430.25;4900200;29;20103;-78
2021/05/03 05:56:44;;;;;;;11.98;9.43;;;;;;;6.29;77.61;99434.75;4899853;29;20035;-77
2021/05/03 05:59:09;;;;;;;10.50;9.23;;;;;;;5.72;78.64;99437.50;4900058;29;20104;-77
2021/05/03 06:01:34;;;;;;;11.60;9.10;;;;;;;5.58;79.09;99450.19;4899760;29;20024;-77
2021/05/03 06:03:59;;;;;;;13.68;9.10;;;;;;;5.63;79.86;99443.41;4886372;29;20106;-77
2021/05/03 06:06:25;;;;;;;11.05;8.88;;;;;;;6.03;77.71;99443.88;4890554;29;20383;-77
2021/05/03 06:08:50;;;;;;;15.85;9.45;;;;;;;5.84;78.93;99447.94;4900594;29;20128;-77
2021/05/03 06:11:16;;;;;;;12.18;8.85;;;;;;;6.31;77.98;99445.91;4899552;29;20526;-77
2021/05/03 06:13:41;;;;;;;17.08;8.90;;;;;;;6.35;77.86;99442.50;4899633;29;20032;-77
2021/05/03 06:16:07;;;;;;;14.48;9.07;;;;;;;6.32;78.02;99441.63;4899492;29;20382;-78
2021/05/03 06:18:32;;;;;;;13.32;9.90;;;;;;;6.46;77.84;99439.19;4898823;29;20080;-77
2021/05/03 06:20:58;;;;;;;16.63;10.77;;;;;;;6.81;75.67;99437.75;4899170;29;20420;-77
2021/05/03 06:23:23;;;;;;;12.35;9.35;;;;;;;6.62;76.43;99441.03;4898842;29;20489;-77
2021/05/03 06:25:49;;;;;;;13.38;9.00;;;;;;;6.83;77.77;99441.22;4899300;29;20569;-77
2021/05/03 06:28:14;;;;;;;12.35;9.15;;;;;;;7.28;76.34;99444.94;4899318;29;20032;-77
2021/05/03 06:30:39;;;;;;;12.20;9.25;;;;;;;7.32;74.90;99446.69;4899073;29;20318;-74
2021/05/03 06:33:05;;;;;;;12.85;8.85;;;;;;;7.77;73.17;99439.16;4897522;29;20443;-74
2021/05/03 06:35:31;;;;;;;10.50;8.07;;;;;;;7.83;73.42;99450.41;4899141;29;20028;-75
2021/05/03 06:37:57;;;;;;;10.18;8.82;;;;;;;8.11;72.71;99434.97;4899418;29;20461;-74
2021/05/03 06:40:22;;;;;;;16.05;10.38;;;;;;;8.69;71.18;99437.66;4898894;29;20111;-75
2021/05/03 06:42:49;;;;;;;11.30;8.63;;;;;;;9.00;70.34;99441.13;4898839;29;20032;-75
2021/05/03 06:45:19;;;;;;;12.05;9.00;;;;;;;9.20;68.50;99443.69;4898555;29;20028;-75
2021/05/03 06:47:45;;;;;;;10.02;7.55;;;;;;;9.81;65.08;99443.47;4899043;29;20036;-76
2021/05/03 06:50:12;;;;;;;8.45;7.10;;;;;;;10.99;61.58;99429.78;4898714;29;20386;-73
2021/05/03 06:52:38;;;;;;;8.60;7.57;;;;;;;12.37;57.35;99439.41;4899096;29;20104;-75
2021/05/03 06:55:05;;;;;;;9.70;6.18;;;;;;;14.70;47.17;99434.97;4898187;29;20040;-74
2021/05/03 06:57:30;;;;;;;8.95;7.13;;;;;;;15.24;45.57;99443.19;4906008;29;20036;-73
2021/05/03 06:59:55;;;;;;;8.68;5.97;;;;;;;16.16;42.55;99444.09;4903680;29;20028;-73
2021/05/03 07:02:22;;;;;;;6.88;6.18;;;;;;;15.45;44.14;99446.97;4898621;29;20029;-74
2021/05/03 07:04:48;;;;;;;7.00;6.35;;;;;;;16.05;42.95;99442.69;4897119;29;20375;-75
2021/05/03 07:07:14;;;;;;;6.63;5.95;;;;;;;16.63;41.24;99439.16;4897572;29;20039;-74
2021/05/03 07:09:39;;;;;;;7.78;5.90;;;;;;;17.41;39.52;99447.03;4898560;29;20039;-74
2021/05/03 07:12:09;;;;;;;5.32;4.82;;;;;;;19.18;35.40;99443.75;4898455;29;20097;-74
2021/05/03 07:14:37;;;;;;;;;;;;;;;19.38;34.52;99442.88;4899052;29;20470;-74
2021/05/03 07:17:05;;;;;;;5.72;4.80;;;;;;;18.65;35.48;99454.66;4898355;29;19942;-74
2021/05/03 07:19:35;;;;;;;6.75;5.15;;;;;;;19.15;34.75;99454.41;4897450;29;20017;-74
2021/05/03 07:22:01;;;;;;;5.22;4.82;;;;;;;19.11;35.64;99448.41;4898460;29;20394;-74
2021/05/03 07:24:26;;;;;;;6.10;4.80;;;;;;;17.64;37.21;99459.31;4897679;29;20032;-74
2021/05/03 07:26:52;;;;;;;4.65;4.25;;;;;;;17.66;36.32;99454.88;4898270;29;20491;-74
2021/05/03 07:29:17;;;;;;;8.77;4.32;;;;;;;18.75;34.81;99443.75;4896654;29;20443;-74
2021/05/03 07:31:43;;;;;;;8.13;4.78;;;;;;;19.37;33.02;99449.06;4897387;29;20076;-74
2021/05/03 07:34:10;;;;;;;4.75;3.92;;;;;;;20.44;30.48;99436.34;4897849;29;20033;-75
2021/05/03 07:36:36;;;;;;;5.03;4.05;;;;;;;20.98;29.97;99445.13;4897939;29;20016;-74
2021/05/03 07:39:05;;;;;;;6.40;4.40;;;;;;;20.44;30.08;99447.72;4897977;29;20125;-74
2021/05/03 07:41:30;;;;;;;6.38;5.43;;;;;;;20.32;29.83;99450.09;4897110;29;20111;-74
2021/05/03 07:43:55;;;;;;;4.45;4.00;;;;;;;20.33;30.40;99446.53;4897651;29;20116;-74
2021/05/03 07:46:24;;;;;;;4.18;3.78;;;;;;;17.82;32.58;99456.97;4897653;29;20067;-74
2021/05/03 07:48:50;;;;;;;7.15;4.20;;;;;;;17.23;35.41;99457.31;4897915;29;20033;-74
2021/05/03 07:51:15;;;;;;;7.47;3.90;;;;;;;20.55;30.50;99436.72;4897504;29;20360;-74
2021/05/03 07:53:41;;;;;;;4.45;4.05;;;;;;;19.59;29.44;99439.34;4896866;29;20047;-74
2021/05/03 07:56:06;;;;;;;6.15;3.50;;;;;;;20.71;27.84;99442.94;4896961;29;20084;-74
2021/05/03 07:58:31;;;;;;;5.32;3.20;;;;;;;20.84;27.42;99444.97;4910055;29;20438;-74
2021/05/03 08:00:57;;;;;;;5.93;3.72;;;;;;;18.93;30.40;99457.06;4897020;29;20354;-74
2021/05/03 08:03:22;;;;;;;4.50;3.80;;;;;;;21.39;27.50;99450.97;4897492;29;20486;-74
2021/05/03 08:05:48;;;;;;;6.18;3.63;;;;;;;20.21;29.08;99443.56;4896607;29;20039;-75
2021/05/03 08:08:13;;;;;;;8.20;4.05;;;;;;;18.09;30.99;99448.09;4897278;29;20437;-74
2021/05/03 08:10:39;;;;;;;4.47;4.00;;;;;;;21.02;27.89;99441.41;4897303;29;20476;-74
2021/05/03 08:13:04;;;;;;;6.57;4.20;;;;;;;19.55;29.69;99443.03;4897236;29;20029;-74
2021/05/03 08:15:30;;;;;;;7.03;3.97;;;;;;;19.54;31.66;99443.94;4897055;29;20130;-74
2021/05/03 08:17:55;;;;;;;5.35;4.03;;;;;;;19.37;31.29;99444.66;4896298;29;20379;-74
2021/05/03 08:20:20;;;;;;;8.35;5.60;;;;;;;17.92;33.70;99451.31;4897102;29;20482;-74
2021/05/03 08:22:46;;;;;;;6.47;3.75;;;;;;;19.98;30.24;99435.88;4897282;29;20020;-74
2021/05/03 08:25:13;;;;;;;5.07;4.35;;;;;;;19.86;30.19;99439.03;4897129;29;20087;-74
2021/05/03 08:27:38;;;;;;;14.98;9.27;;;;;;;19.10;31.81;99435.31;4896791;29;20032;-74
2021/05/03 08:30:06;;;;;;;4.82;4.32;;;;;;;21.03;29.93;99435.22;4910749;29;20095;-78
2021/05/03 08:32:31;;;;;;;4.05;3.75;;;;;;;19.49;30.13;99443.28;4896955;29;20021;-78
2021/05/03 08:34:56;;;;;;;4.95;4.13;;;;;;;20.62;28.57;99438.13;4895977;29;20039;-77
2021/05/03 08:37:22;;;;;;;10.48;5.60;;;;;;;21.45;29.57;99436.63;4895713;29;20032;-77
2021/05/03 08:39:47;;;;;;;6.68;5.25;;;;;;;21.50;28.40;99439.88;4896098;29;20386;-77
2021/05/03 08:42:15;;;;;;;9.25;4.50;;;;;;;19.62;29.44;99444.47;4896495;29;20016;-78
2021/05/03 08:44:45;;;;;;;4.70;3.97;;;;;;;16.51;34.11;99444.78;4897038;29;20039;-78
2021/05/03 08:47:10;;;;;;;4.60;4.20;;;;;;;15.27;37.29;99453.53;4896850;29;20136;-78
2021/05/03 08:49:52;;;;;;;7.13;5.10;;;;;;;13.98;40.23;99450.47;4896962;29;20157;-78
2021/05/03 08:52:24;;;;;;;8.70;6.07;;;;;;;13.87;41.75;99453.28;4895635;29;20667;-79
2021/05/03 08:54:50;;;;;;;8.05;5.78;;;;;;;12.99;42.22;99454.91;4896834;29;20072;-78
2021/05/03 08:57:17;;;;;;;6.10;5.15;;;;;;;13.07;42.04;99453.06;4902029;29;20023;-79
2021/05/03 08:59:42;;;;;;;11.52;6.53;;;;;;;12.67;44.62;99445.91;4903379;29;20028;-78
2021/05/03 09:02:10;;;;;;;13.20;8.85;;;;;;;13.38;43.45;99437.75;4892290;29;20494;-72
2021/05/03 09:04:35;;;;;;;7.28;5.63;;;;;;;14.06;40.94;99432.91;4894754;29;20021;-72
2021/05/03 09:07:04;;;;;;;17.85;10.38;;;;;;;13.79;41.38;99439.56;4896461;29;20036;-72
2021/05/03 09:09:33;;;;;;;6.03;5.43;;;;;;;13.65;42.09;99451.16;4896634;29;20043;-72
2021/05/03 09:12:05;;;;;;;9.80;6.50;;;;;;;13.81;40.87;99442.13;4895903;29;20570;-72
2021/05/03 09:14:32;;;;;;;6.43;5.45;;;;;;;13.79;40.54;99446.53;4900001;29;20051;-72
2021/05/03 09:16:58;;;;;;;8.98;5.20;;;;;;;13.78;40.41;99442.19;4899381;29;20032;-72
2021/05/03 09:19:24;;;;;;;10.00;6.47;;;;;;;14.47;39.25;99433.75;4900440;29;20509;-72
2021/05/03 09:21:50;;;;;;;10.13;5.28;;;;;;;16.43;35.84;99417.97;4900232;29;20029;-74
2021/05/03 09:24:20;;;;;;;6.72;4.82;;;;;;;16.81;33.47;99419.41;4900277;29;20044;-72
2021/05/03 09:26:50;;;;;;;15.70;6.85;;;;;;;16.47;34.01;99413.53;4899603;29;20060;-72
2021/05/03 09:29:25;;;;;;;9.30;5.97;;;;;;;20.68;29.91;99394.81;4900101;29;20402;-72
2021/05/03 09:32:14;;;;;;;7.65;4.82;;;;;;;20.23;29.86;99402.22;4899545;29;20040;-72
2021/05/03 09:34:42;;;;;;;13.63;7.87;;;;;;;17.41;33.46;99414.75;4899833;29;20044;-72
2021/05/03 09:37:45;;;;;;;11.95;5.63;;;;;;;18.11;32.32;99406.91;4900139;29;20028;-71
2021/05/03 09:40:15;;;;;;;5.05;4.28;;;;;;;17.97;31.44;99398.72;4899365;29;20024;-71
2021/05/03 09:42:57;;;;;;;9.40;4.90;;;;;;;18.71;31.26;99397.56;4899681;29;20029;-71
2021/05/03 09:45:29;;;;;;;9.07;5.18;;;;;;;19.61;28.89;99384.94;4900162;29;20028;-72
2021/05/03 09:47:57;;;;;;;6.88;5.63;;;;;;;20.06;28.76;99389.00;4914555;29;20471;-72
2021/05/03 09:50:25;;;;;;;8.18;6.13;;;;;;;20.34;28.40;99390.31;4898815;29;20064;-72
2021/05/03 09:53:03;;;;;;;5.13;4.65;;;;;;;20.03;29.31;99386.53;4899972;29;20115;-72
2021/05/03 09:55:47;;;;;;;8.65;4.68;;;;;;;19.83;29.47;99383.97;4899826;29;20111;-71
2021/05/03 09:58:18;;;;;;;7.97;4.68;;;;;;;20.40;28.14;99382.97;4911318;29;20038;-72
2021/05/03 10:00:49;;;;;;;5.95;4.78;;;;;;;21.94;25.71;99379.44;4898901;29;20029;-72
2021/05/03 10:06:04;;;;;;;6.45;4.88;;;;;;;16.47;32.61;99397.81;4899531;29;20439;-72
2021/05/03 10:08:29;;;;;;;6.70;4.95;;;;;;;14.73;35.94;99403.59;4899661;29;20036;-72
2021/05/03 10:10:59;;;;;;;9.55;4.93;;;;;;;14.32;38.10;99400.22;4899357;29;20021;-72
2021/05/03 10:13:24;;;;;;;;;;;;;;;14.03;39.41;99406.94;4898078;29;20040;-74
2021/05/03 10:15:53;;;;;;;5.78;4.78;;;;;;;14.30;39.40;99404.59;4899201;29;20424;-74
2021/05/03 10:18:19;;;;;;;5.10;4.60;;;;;;;13.94;37.73;99401.91;4899347;29;20021;-74
2021/05/03 10:20:45;;;;;;;11.70;5.35;;;;;;;13.89;38.61;99408.97;4899331;29;20505;-71
2021/05/03 10:23:13;;;;;;;6.13;5.00;;;;;;;13.66;38.76;99406.00;4898311;29;20036;-79
2021/05/03 10:25:41;;;;;;;7.68;5.20;;;;;;;13.67;39.28;99399.88;4898381;29;20032;-77
2021/05/03 10:28:07;;;;;;;8.20;5.18;;;;;;;14.22;38.26;99390.91;4899577;29;20107;-70
2021/05/03 10:30:40;;;;;;;6.20;4.53;;;;;;;15.32;35.04;99382.91;4898275;29;20108;-71
2021/05/03 10:33:10;;;;;;;9.43;5.72;;;;;;;15.05;35.37;99380.16;4899240;29;20135;-71
2021/05/03 10:35:42;;;;;;;5.68;4.60;;;;;;;15.14;35.28;99382.53;4887968;29;20119;-71
2021/05/03 10:38:32;;;;;;;8.65;4.65;;;;;;;14.94;35.06;99379.59;4889282;29;20703;-71
2021/05/03 10:41:00;;;;;;;5.45;3.88;;;;;;;14.80;35.67;99373.88;4888555;29;20099;-71
2021/05/03 10:43:37;;;;;;;5.60;3.88;;;;;;;15.31;36.20;99366.38;4884769;29;20482;-72
2021/05/03 10:51:45;;;;;;;12.27;4.65;;;;;;;20.39;29.11;99343.56;4886490;29;20039;-77
2021/05/03 10:54:44;;;;;;;6.00;4.15;;;;;;;20.65;27.38;99343.19;4890472;29;20334;-77
2021/05/03 10:57:16;;;;;;;;;;;;;;;18.07;29.58;99346.75;4885681;29;20040;-77
2021/05/03 10:59:49;;;;;;;5.95;3.20;;;;;;;18.16;30.88;99342.00;4883731;29;19947;-71
2021/05/03 11:02:16;;;;;;;5.50;3.22;;;;;;;14.72;35.63;99360.16;4889743;29;20056;-71
2021/05/03 11:05:08;;;;;;;4.72;3.03;;;;;;;15.90;34.17;99349.91;4885000;29;20075;-73
2021/05/03 11:07:33;;;;;;;4.60;3.40;;;;;;;15.81;35.66;99344.94;4887380;29;21147;-77
2021/05/03 11:09:58;;;;;;;4.32;3.80;;;;;;;15.70;34.81;99352.25;4884575;29;20095;-77
2021/05/03 11:12:24;;;;;;;4.57;3.58;;;;;;;16.02;34.11;99339.09;4888297;29;20470;-71
2021/05/03 11:15:18;;;;;;;4.88;3.80;;;;;;;15.91;34.46;99341.19;4889130;29;20043;-72
2021/05/03 11:18:23;;;;;;;4.90;3.40;;;;;;;15.28;35.18;99339.50;4885248;29;20040;-71
2021/05/03 11:21:18;;;;;;;5.40;3.90;;;;;;;15.12;36.04;99342.53;4889712;29;20525;-71
2021/05/03 11:23:45;;;;;;;10.32;5.75;;;;;;;15.26;36.36;99341.31;4889062;29;20052;-78
2021/05/03 11:26:25;;;;;;;4.90;3.17;;;;;;;16.21;32.83;99339.38;4888276;29;20032;-74
2021/05/03 11:28:50;;;;;;;4.20;3.20;;;;;;;15.59;34.06;99337.72;4886386;29;20041;-74
2021/05/03 11:31:20;;;;;;;5.13;3.05;;;;;;;15.45;33.92;99332.06;4886390;29;20027;-74
2021/05/03 11:33:57;;;;;;;5.15;3.40;;;;;;;14.69;35.19;99342.81;4886899;29;20046;-74
2021/05/03 11:36:27;;;;;;;5.35;3.80;;;;;;;14.38;35.80;99334.88;4885697;29;20719;-74
2021/05/03 11:39:31;;;;;;;3.70;3.22;;;;;;;14.09;38.52;99331.22;4887026;29;20040;-74
2021/05/03 11:42:09;;;;;;;5.78;4.30;;;;;;;13.82;43.56;99329.22;4888716;29;20557;-74
2021/05/03 11:44:47;;;;;;;6.55;4.20;;;;;;;13.73;39.84;99329.44;4888561;29;20037;-74
2021/05/03 11:47:12;;;;;;;6.30;4.22;;;;;;;13.65;38.98;99320.97;4884472;29;20032;-74
2021/05/03 11:49:43;;;;;;;11.25;3.85;;;;;;;13.94;39.74;99326.38;4888112;29;20071;-74
2021/05/03 11:52:09;;;;;;;6.10;3.35;;;;;;;14.78;37.27;99313.88;4886019;29;20053;-74
2021/05/03 11:54:42;;;;;;;7.15;3.72;;;;;;;16.73;32.43;99302.78;4885288;29;20679;-74
2021/05/03 11:57:20;;;;;;;5.28;3.72;;;;;;;17.30;30.65;99301.63;4887921;29;20537;-74
2021/05/03 11:59:46;;;;;;;4.13;3.22;;;;;;;18.31;31.66;99292.47;4885016;29;20042;-74
2021/05/03 12:02:15;;;;;;;3.50;3.15;;;;;;;18.24;29.76;99291.88;4886954;29;20029;-75
2021/05/03 12:04:41;;;;;;;3.85;3.00;;;;;;;16.69;30.42;99299.41;4888119;29;20036;-75
2021/05/03 12:07:24;;;;;;;3.72;3.10;;;;;;;16.04;33.62;99305.91;4888040;29;20041;-74
2021/05/03 12:10:03;;;;;;;4.30;3.80;;;;;;;15.45;34.92;99298.09;4886265;29;20390;-74
2021/05/03 12:12:36;;;;;;;4.47;3.45;;;;;;;13.80;37.87;99300.63;4887895;29;20021;-74
2021/05/03 12:15:08;;;;;;;5.55;3.17;;;;;;;15.54;35.34;99283.94;4859874;29;20061;-74
2021/05/03 12:17:34;;;;;;;4.50;2.90;;;;;;;16.53;33.49;99285.97;4886636;29;20036;-74
2021/05/03 12:20:07;;;;;;;3.53;3.20;;;;;;;16.77;31.49;99280.84;4886315;29;20117;-75
2021/05/03 12:22:33;;;;;;;3.70;3.40;;;;;;;16.00;30.90;99285.97;4882891;29;20798;-75
2021/05/03 12:25:05;;;;;;;3.90;3.28;;;;;;;16.16;33.16;99281.13;4900620;29;20279;-74
2021/05/03 12:27:32;;;;;;;9.80;3.70;;;;;;;15.28;33.76;99271.63;4885971;29;20021;-74
2021/05/03 12:29:58;;;;;;;3.35;3.05;;;;;;;14.88;35.05;99272.75;4883211;29;20033;-75
2021/05/03 12:32:30;;;;;;;3.25;2.95;;;;;;;14.72;34.28;99266.25;4885196;29;20314;-73
2021/05/03 12:34:56;;;;;;;5.32;3.35;;;;;;;15.09;34.68;99266.94;4884737;29;20501;-73
2021/05/03 12:37:29;;;;;;;8.00;3.38;;;;;;;15.35;32.98;99267.94;4886477;29;20032;-73
2021/05/03 12:40:02;;;;;;;7.68;3.58;;;;;;;15.13;32.55;99258.13;4886709;29;20044;-74
2021/05/03 12:42:45;;;;;;;7.00;3.15;;;;;;;15.03;33.38;99256.66;4887165;29;20072;-73
2021/05/03 12:56:46;;;;;;;3.05;2.70;;;;;;;14.60;33.04;99223.97;4884705;29;20033;-77
2021/05/03 13:02:00;;;;;;;3.65;2.60;;;;;;;15.01;32.80;99221.09;4882632;29;20111;-78
2021/05/03 13:29:31;;;;;;;3.47;2.50;;;;;;;15.15;32.49;99172.78;4885839;29;20059;-79
2021/05/03 13:31:56;;;;;;;2.38;2.17;;;;;;;15.81;30.79;99162.94;4897802;29;20119;-79
2021/05/03 13:34:21;;;;;;;5.55;2.20;;;;;;;15.89;33.31;99165.25;4887042;29;20397;-79
2021/05/03 13:36:50;;;;;;;2.42;2.22;;;;;;;16.54;31.81;99159.53;4882611;29;20091;-79
2021/05/03 13:39:18;;;;;;;3.22;2.65;;;;;;;15.79;31.06;99161.25;4884385;29;20043;-78
2021/05/03 13:41:46;;;;;;;2.53;2.30;;;;;;;15.71;31.43;99155.41;4887902;29;20152;-79
2021/05/03 13:44:16;;;;;;;3.85;2.95;;;;;;;14.40;33.98;99148.84;4882119;29;20033;-78
2021/05/03 13:46:42;;;;;;;4.40;2.38;;;;;;;14.34;32.60;99145.56;4885424;29;20036;-79
2021/05/03 13:49:07;;;;;;;3.75;2.55;;;;;;;14.98;31.97;99151.56;4882253;29;20060;-78
2021/05/03 13:51:33;;;;;;;2.75;2.30;;;;;;;15.49;31.68;99143.03;4885380;29;20029;-78
2021/05/03 13:54:01;;;;;;;4.68;2.63;;;;;;;15.40;32.39;99145.94;4885202;29;20037;-78
2021/05/03 13:56:26;;;;;;;4.43;2.15;;;;;;;15.50;30.89;99136.91;4881374;29;20039;-78
2021/05/03 13:58:52;;;;;;;2.97;2.25;;;;;;;15.22;32.29;99133.44;4890011;29;20037;-79
2021/05/03 14:01:17;;;;;;;2.13;1.73;;;;;;;15.31;31.45;99130.56;4888793;29;20123;-78
2021/05/03 14:03:43;;;;;;;5.80;2.80;;;;;;;15.03;31.17;99125.31;4888680;29;20557;-79
2021/05/03 14:06:10;;;;;;;2.30;2.10;;;;;;;15.28;32.17;99125.41;4888482;29;20479;-78
2021/05/03 14:08:35;;;;;;;3.70;2.20;;;;;;;15.34;30.81;99120.88;4885123;29;20081;-79
2021/05/03 14:11:04;;;;;;;3.58;2.03;;;;;;;15.13;31.12;99116.31;4882794;29;21381;-79
2021/05/03 14:13:30;;;;;;;2.50;2.20;;;;;;;15.06;32.87;99109.59;4885282;29;20036;-78
2021/05/03 14:15:55;;;;;;;2.30;2.10;;;;;;;15.31;31.73;99109.66;4888153;29;21583;-79
2021/05/03 14:18:20;;;;;;;4.35;1.55;;;;;;;15.33;31.85;99110.50;4885788;29;20439;-79
2021/05/03 14:20:47;;;;;;;2.95;2.10;;;;;;;16.07;30.57;99088.84;4887364;29;20025;-79
2021/05/03 14:23:12;;;;;;;3.13;1.73;;;;;;;16.06;29.02;99092.38;4891226;29;20088;-79
2021/05/03 14:25:38;;;;;;;1.60;1.50;;;;;;;16.81;27.80;99086.16;4888492;29;20032;-79
2021/05/03 14:28:10;;;;;;;1.65;1.55;;;;;;;16.72;28.65;99073.44;4886496;29;20482;-78
2021/05/03 14:30:53;;;;;;;1.90;1.80;;;;;;;16.50;28.46;99071.59;4889104;29;20406;-79
2021/05/03 14:33:21;;;;;;;2.85;1.90;;;;;;;15.78;28.94;99073.31;4887866;29;20388;-72
2021/05/03 14:35:47;;;;;;;2.35;1.90;;;;;;;15.49;30.81;99072.50;4886400;29;20029;-72
2021/05/03 14:38:13;;;;;;;3.53;1.60;;;;;;;15.58;28.90;99061.75;4885994;29;20558;-73
2021/05/03 14:40:39;;;;;;;3.05;1.85;;;;;;;15.53;30.51;99062.81;4890436;29;20123;-71
2021/05/03 14:43:07;;;;;;;2.45;1.80;;;;;;;16.17;30.57;99044.94;4888805;29;20033;-71
2021/05/03 14:45:37;;;;;;;3.30;1.55;;;;;;;16.26;30.12;99043.75;4888127;29;20048;-72
2021/05/03 14:48:09;;;;;;;1.92;1.50;;;;;;;16.51;30.01;99044.53;4886167;29;20111;-72
2021/05/03 14:51:03;;;;;;;3.47;1.95;;;;;;;15.73;28.44;99036.06;4889544;29;20024;-72
2021/05/03 14:53:39;;;;;;;1.42;1.33;;;;;;;15.34;28.86;99037.31;4889635;29;20043;-72
2021/05/03 14:56:05;;;;;;;2.28;1.48;;;;;;;14.64;29.99;99031.72;4887947;29;20052;-72
2021/05/03 14:58:31;;;;;;;27.27;16.15;;;;;;;14.39;31.06;99034.19;4889539;29;20043;-72
2021/05/03 15:00:56;;;;;;;2.45;1.65;;;;;;;14.36;31.82;99018.66;4884040;29;20398;-72
2021/05/03 15:03:24;;;;;;;2.65;2.10;;;;;;;14.74;30.95;99021.84;4889797;29;20025;-72
2021/05/03 15:05:54;;;;;;;1.52;1.35;;;;;;;15.70;29.54;99008.25;4887258;29;20115;-75
2021/05/03 15:08:19;;;;;;;4.45;2.00;;;;;;;15.88;31.45;99014.59;4884544;29;20084;-73
2021/05/03 15:10:45;;;;;;;2.10;1.95;;;;;;;14.19;32.49;99020.88;4886527;29;20028;-73
2021/05/03 15:13:13;;;;;;;3.60;2.45;;;;;;;15.25;32.65;99015.88;4889362;29;20040;-73
2021/05/03 15:23:19;;;;;;;2.25;1.88;;;;;;;16.11;30.82;98998.94;4886352;29;20067;-73
2021/05/03 15:25:50;;;;;;;2.35;1.70;;;;;;;16.24;28.94;99001.09;4888584;29;20119;-73
2021/05/03 15:28:46;;;;;;;3.15;2.00;;;;;;;15.41;29.29;99001.41;4887905;29;20046;-73
2021/05/03 15:31:21;;;;;;;2.10;1.75;;;;;;;16.39;30.41;98992.66;4886954;29;20036;-73
2021/05/03 15:33:47;;;;;;;3.70;1.65;;;;;;;16.38;30.07;98985.75;4888240;29;21023;-73
2021/05/03 15:36:13;;;;;;;2.85;2.58;;;;;;;15.78;29.56;98984.50;4887002;29;20039;-73
2021/05/03 15:38:38;;;;;;;1.88;1.60;;;;;;;16.04;29.96;98983.53;4887919;29;20062;-73
2021/05/03 15:41:04;;;;;;;2.22;1.58;;;;;;;16.12;29.65;98987.56;4884725;29;20099;-74
2021/05/03 15:43:31;;;;;;;2.58;1.45;;;;;;;15.91;29.73;98977.94;4887612;29;20061;-74
2021/05/03 15:45:59;;;;;;;2.15;1.65;;;;;;;15.85;30.72;98980.75;4887489;29;20032;-75
2021/05/03 15:48:25;;;;;;;2.70;2.13;;;;;;;15.36;30.31;98977.22;4885773;29;20115;-74
2021/05/03 15:50:53;;;;;;;2.55;1.52;;;;;;;16.02;30.74;98969.69;4886616;29;20143;-70
2021/05/03 15:53:20;;;;;;;2.13;1.65;;;;;;;15.90;29.40;98973.59;4901414;29;20033;-71
2021/05/03 15:55:46;;;;;;;4.85;1.70;;;;;;;15.70;30.56;98971.69;4887783;29;20047;-69
2021/05/03 15:58:15;;;;;;;1.55;1.45;;;;;;;15.35;32.21;98975.50;4883632;29;20036;-72
2021/05/03 16:00:44;;;;;;;2.67;1.85;;;;;;;15.37;31.63;98981.50;4889350;29;20502;-71
2021/05/03 16:03:11;;;;;;;2.70;2.03;;;;;;;15.40;31.74;98978.81;4886782;29;20032;-73
2021/05/03 16:05:38;;;;;;;3.55;2.10;;;;;;;15.51;31.79;98971.44;4889386;29;20067;-72
2021/05/03 16:08:05;;;;;;;2.08;1.70;;;;;;;15.42;30.99;98971.78;4889395;29;20032;-72
2021/05/03 16:10:31;;;;;;;3.40;1.80;;;;;;;15.96;31.64;98968.16;4889101;29;20035;-72
2021/05/03 16:12:59;;;;;;;3.45;2.30;;;;;;;14.78;30.78;98979.13;4886522;29;20460;-72
2021/05/03 16:15:24;;;;;;;4.43;2.20;;;;;;;14.60;31.53;98970.13;4889124;29;20474;-72
2021/05/03 16:17:50;;;;;;;3.13;2.35;;;;;;;14.55;31.56;98967.69;4889338;29;20039;-72
2021/05/03 16:20:16;;;;;;;4.15;2.40;;;;;;;14.21;32.69;98966.94;4882805;29;20032;-72
2021/05/03 16:22:42;;;;;;;8.00;4.05;;;;;;;13.89;33.06;98966.13;4889144;29;20103;-72
2021/05/03 16:25:08;;;;;;;3.08;2.63;;;;;;;13.89;32.10;98960.94;4889065;29;20032;-72
2021/05/03 16:27:34;;;;;;;6.35;2.10;;;;;;;14.47;34.26;98964.41;4886275;29;20091;-72
2021/05/03 16:29:59;;;;;;;4.72;2.50;;;;;;;14.85;32.48;98958.03;4911466;23;20505;-76
2021/05/03 16:32:24;;;;;;;4.40;2.92;;;;;;;15.37;30.86;98940.59;4888997;29;20402;-77
2021/05/03 16:34:51;;;;;;;4.88;2.85;;;;;;;15.29;30.73;98944.41;4887567;29;20024;-76
2021/05/03 16:37:17;;;;;;;2.47;1.90;;;;;;;15.84;31.02;98932.00;4888897;29;20025;-76
2021/05/03 16:39:42;;;;;;;2.00;1.80;;;;;;;15.85;30.93;98938.94;4903152;29;20032;-77
2021/05/03 16:42:07;;;;;;;2.10;1.98;;;;;;;15.82;30.27;98933.84;4887655;29;20505;-77
2021/05/03 16:44:33;;;;;;;2.17;1.83;;;;;;;15.74;30.25;98930.63;4889029;29;20061;-76
2021/05/03 16:46:58;;;;;;;1.98;1.77;;;;;;;15.46;31.80;98931.59;4888711;29;20071;-77
2021/05/03 16:49:24;;;;;;;2.45;1.92;;;;;;;14.80;33.15;98936.47;4888760;29;20169;-77
2021/05/03 16:51:49;;;;;;;2.92;2.05;;;;;;;15.07;32.23;98926.84;4888549;29;20124;-77
2021/05/03 16:54:14;;;;;;;4.38;2.28;;;;;;;15.25;31.33;98921.91;4888680;29;20103;-78
2021/05/03 16:56:40;;;;;;;2.40;1.65;;;;;;;15.44;31.62;98917.75;4888660;29;20131;-77
2021/05/03 16:59:05;;;;;;;3.33;2.08;;;;;;;15.34;32.72;98919.84;4888768;29;20731;-76
2021/05/03 17:01:31;;;;;;;2.45;2.13;;;;;;;15.32;31.64;98912.94;4888369;29;20761;-76